createdAt,value
2023-02-14T00:00:51.386Z,6.02
2023-02-14T00:03:18.152Z,6.11
2023-02-14T00:05:44.857Z,6.06
2023-02-14T00:08:12.618Z,6.05
2023-02-14T00:10:39.404Z,5.97
2023-02-14T00:13:06.144Z,6.01
2023-02-14T00:15:32.955Z,6.05
2023-02-14T00:18:00.036Z,6.17
2023-02-14T00:20:28.151Z,6.12
2023-02-14T00:22:55.279Z,5.96
2023-02-14T00:25:22.063Z,6.13
2023-02-14T00:27:48.817Z,6.04
2023-02-14T00:30:15.733Z,6.08
2023-02-14T00:32:42.994Z,6.11
2023-02-14T00:35:10.815Z,6.13
2023-02-14T00:37:37.761Z,6.15
2023-02-14T00:40:06.508Z,6.05
2023-02-14T00:42:33.546Z,6.02
2023-02-14T00:45:00.426Z,6.06
2023-02-14T00:47:27.139Z,5.94
2023-02-14T00:49:53.915Z,6.12
2023-02-14T00:52:20.684Z,6.12
2023-02-14T00:54:47.491Z,6.05
2023-02-14T00:57:14.332Z,6.01
2023-02-14T00:59:41.094Z,5.97
2023-02-14T01:02:07.997Z,5.93
2023-02-14T01:04:34.921Z,5.94
2023-02-14T01:07:01.610Z,5.97
2023-02-14T01:09:28.361Z,5.93
2023-02-14T01:11:55.118Z,5.98
2023-02-14T01:14:21.984Z,5.89
2023-02-14T01:16:48.777Z,5.90
2023-02-14T01:19:15.522Z,5.95
2023-02-14T01:21:42.344Z,5.89
2023-02-14T01:24:15.118Z,5.93
2023-02-14T01:26:41.768Z,5.89
2023-02-14T01:29:08.536Z,5.86
2023-02-14T01:31:35.648Z,5.82
2023-02-14T01:34:03.124Z,5.94
2023-02-14T01:36:36.780Z,5.89
2023-02-14T01:39:06.525Z,5.94
2023-02-14T01:41:36.035Z,6.08
2023-02-14T01:44:07.254Z,6.07
2023-02-14T01:46:36.558Z,6.01
2023-02-14T01:49:15.415Z,5.93
2023-02-14T01:51:47.679Z,5.87
2023-02-14T01:54:14.984Z,5.90
2023-02-14T01:56:48.519Z,6.01
2023-02-14T01:59:19.531Z,5.96
2023-02-14T02:01:49.762Z,6.00
2023-02-14T02:04:25.190Z,6.12
2023-02-14T02:06:57.169Z,6.04
2023-02-14T02:09:39.037Z,5.91
2023-02-14T02:12:05.880Z,5.97
2023-02-14T02:14:33.303Z,5.92
2023-02-14T02:17:18.845Z,5.84
2023-02-14T02:20:01.590Z,5.90
2023-02-14T02:22:41.416Z,5.91
2023-02-14T02:25:32.173Z,5.96
2023-02-14T02:28:17.680Z,5.91
2023-02-14T02:31:05.618Z,5.98
2023-02-14T02:33:45.319Z,5.92
2023-02-14T02:36:37.046Z,5.90
2023-02-14T02:39:29.291Z,6.01
2023-02-14T02:42:14.591Z,6.06
2023-02-14T02:45:06.395Z,5.89
2023-02-14T02:47:58.244Z,5.85
2023-02-14T02:50:52.081Z,5.87
2023-02-14T02:53:51.524Z,5.84
2023-02-14T02:56:46.700Z,5.85
2023-02-14T02:59:19.781Z,5.85
2023-02-14T03:01:57.745Z,5.72
2023-02-14T03:04:52.561Z,5.72
2023-02-14T03:07:40.615Z,5.78
2023-02-14T03:10:23.852Z,5.74
2023-02-14T03:13:15.539Z,5.64
2023-02-14T03:15:48.238Z,5.74
2023-02-14T03:19:02.702Z,5.72
2023-02-14T03:21:40.598Z,5.67
2023-02-14T03:24:28.766Z,5.82
2023-02-14T03:27:15.406Z,5.82
2023-02-14T03:30:13.516Z,5.79
2023-02-14T03:32:46.293Z,5.81
2023-02-14T03:35:31.809Z,5.74
2023-02-14T03:38:13.508Z,5.78
2023-02-14T03:40:46.763Z,5.77
2023-02-14T03:43:20.139Z,5.81
2023-02-14T03:45:51.964Z,5.79
2023-02-14T03:48:24.108Z,5.67
2023-02-14T03:50:52.365Z,5.67
2023-02-14T03:53:24.981Z,5.66
2023-02-14T03:56:01.617Z,5.70
2023-02-14T03:58:38.797Z,5.62
2023-02-14T04:01:14.874Z,5.63
2023-02-14T04:03:43.702Z,5.68
2023-02-14T04:06:10.713Z,5.66
2023-02-14T04:08:37.459Z,5.72
2023-02-14T04:11:05.615Z,5.72
2023-02-14T04:13:32.705Z,5.63
2023-02-14T04:15:59.580Z,5.64
2023-02-14T04:18:44.900Z,5.61
2023-02-14T04:21:11.726Z,5.61
2023-02-14T04:23:38.344Z,5.57
2023-02-14T04:26:05.334Z,5.60
2023-02-14T04:28:32.505Z,5.56
2023-02-14T04:31:05.215Z,5.59
2023-02-14T04:33:33.192Z,5.51
2023-02-14T04:36:00.810Z,5.54
2023-02-14T04:38:27.571Z,5.45
2023-02-14T04:40:54.368Z,5.51
2023-02-14T04:43:21.153Z,5.51
2023-02-14T04:45:47.929Z,5.60
2023-02-14T04:48:14.779Z,5.46
2023-02-14T04:50:41.496Z,5.63
2023-02-14T04:53:08.186Z,5.61
2023-02-14T04:55:34.919Z,5.57
2023-02-14T04:58:01.662Z,5.65
2023-02-14T05:00:28.405Z,5.59
2023-02-14T05:02:55.146Z,5.59
2023-02-14T05:05:21.966Z,5.55
2023-02-14T05:07:48.799Z,5.56
2023-02-14T05:10:16.298Z,5.48
2023-02-14T05:12:43.215Z,5.49
2023-02-14T05:15:10.512Z,5.42
2023-02-14T05:17:37.413Z,5.36
2023-02-14T05:20:05.965Z,5.38
2023-02-14T05:22:32.864Z,5.42
2023-02-14T05:24:59.834Z,5.51
2023-02-14T05:27:28.573Z,5.48
2023-02-14T05:30:14.187Z,5.52
2023-02-14T05:33:00.323Z,5.39
2023-02-14T05:35:27.677Z,5.41
2023-02-14T05:37:54.454Z,5.36
2023-02-14T05:40:21.343Z,5.35
2023-02-14T05:42:47.988Z,5.33
2023-02-14T05:45:15.138Z,5.30
2023-02-14T05:47:42.023Z,5.26
2023-02-14T05:50:09.298Z,5.36
2023-02-14T05:52:36.582Z,5.19
2023-02-14T05:55:04.161Z,5.21
2023-02-14T05:57:31.172Z,5.22
2023-02-14T05:59:57.821Z,5.26
2023-02-14T06:02:24.789Z,5.34
2023-02-14T06:04:51.697Z,5.20
2023-02-14T06:07:18.755Z,5.19
2023-02-14T06:09:45.505Z,5.13
2023-02-14T06:12:12.120Z,5.15
2023-02-14T06:14:39.007Z,5.21
2023-02-14T06:17:05.738Z,5.19
2023-02-14T06:19:32.534Z,5.22
2023-02-14T06:21:59.172Z,5.26
2023-02-14T06:24:25.911Z,5.06
2023-02-14T06:26:52.553Z,5.11
2023-02-14T06:29:19.345Z,5.11
2023-02-14T06:31:46.332Z,5.15
2023-02-14T06:34:14.786Z,5.04
2023-02-14T06:36:42.027Z,5.10
2023-02-14T06:39:08.771Z,5.13
2023-02-14T06:41:35.620Z,5.05
2023-02-14T06:44:02.607Z,5.10
2023-02-14T06:46:29.411Z,5.13
2023-02-14T06:48:56.474Z,5.08
2023-02-14T06:51:23.262Z,5.08
2023-02-14T06:53:50.251Z,5.19
2023-02-14T06:56:16.933Z,5.13
2023-02-14T06:58:43.622Z,4.96
2023-02-14T07:01:10.374Z,5.00
2023-02-14T07:03:37.209Z,4.98
2023-02-14T07:06:04.029Z,5.07
2023-02-14T07:08:30.806Z,5.07
2023-02-14T07:10:58.621Z,5.00
2023-02-14T07:13:25.710Z,5.04
2023-02-14T07:15:52.407Z,4.97
2023-02-14T07:18:19.281Z,4.97
2023-02-14T07:20:46.090Z,4.96
2023-02-14T07:23:12.874Z,5.03
2023-02-14T07:25:40.654Z,4.96
2023-02-14T07:28:07.405Z,5.09
2023-02-14T07:30:34.455Z,5.05
2023-02-14T07:33:01.382Z,5.17
2023-02-14T07:35:28.112Z,5.08
2023-02-14T07:37:55.093Z,5.13
2023-02-14T07:40:22.289Z,5.21
2023-02-14T07:42:57.034Z,5.11
2023-02-14T07:45:24.865Z,5.21
2023-02-14T07:47:53.790Z,5.21
2023-02-14T07:50:22.703Z,5.20
2023-02-14T07:52:49.588Z,5.24
2023-02-14T07:55:16.452Z,5.30
2023-02-14T07:57:43.337Z,5.37
2023-02-14T08:00:10.535Z,5.33
2023-02-14T08:02:37.275Z,5.39
2023-02-14T08:05:04.080Z,5.24
2023-02-14T08:07:31.152Z,5.36
2023-02-14T08:09:57.799Z,5.39
2023-02-14T08:12:43.351Z,5.26
2023-02-14T08:15:28.662Z,5.31
2023-02-14T08:17:56.749Z,5.43
2023-02-14T08:20:23.463Z,5.39
2023-02-14T08:22:50.203Z,5.52
2023-02-14T08:25:17.048Z,5.54
2023-02-14T08:27:43.730Z,5.55
2023-02-14T08:30:10.898Z,5.49
2023-02-14T08:32:38.003Z,5.51
2023-02-14T08:35:05.058Z,5.51
2023-02-14T08:37:31.854Z,5.50
2023-02-14T08:39:58.607Z,5.50
2023-02-14T08:42:25.530Z,5.46
2023-02-14T08:44:52.253Z,5.37
2023-02-14T08:47:20.110Z,5.43
2023-02-14T08:49:46.876Z,5.40
2023-02-14T08:52:13.591Z,5.39
2023-02-14T08:54:40.335Z,5.50
2023-02-14T08:57:07.229Z,5.49
2023-02-14T08:59:34.220Z,5.46
2023-02-14T09:02:01.022Z,5.45
2023-02-14T09:04:27.905Z,5.37
2023-02-14T09:06:54.646Z,5.45
2023-02-14T09:09:21.367Z,5.40
2023-02-14T09:11:48.157Z,5.39
2023-02-14T09:14:16.196Z,5.40
2023-02-14T09:16:43.162Z,5.59
2023-02-14T09:19:12.585Z,5.51
2023-02-14T09:21:40.749Z,5.48
2023-02-14T09:24:07.513Z,5.61
2023-02-14T09:26:36.936Z,5.67
2023-02-14T09:29:03.688Z,5.66
2023-02-14T09:31:30.786Z,5.60
2023-02-14T09:33:57.638Z,5.60
2023-02-14T09:36:42.917Z,5.60
2023-02-14T09:39:09.673Z,6.13
2023-02-14T09:42:03.319Z,5.62
2023-02-14T09:44:40.147Z,5.78
2023-02-14T09:47:30.105Z,5.71
2023-02-14T09:49:58.222Z,5.80
2023-02-14T09:52:28.802Z,5.75
2023-02-14T09:54:59.196Z,5.68
2023-02-14T09:57:43.817Z,5.77
2023-02-14T10:00:33.876Z,5.78
2023-02-14T10:03:26.365Z,6.08
2023-02-14T10:06:30.937Z,5.80
2023-02-14T10:09:00.589Z,5.86
2023-02-14T10:11:28.244Z,6.04
2023-02-14T10:14:22.693Z,6.04
2023-02-14T10:16:55.265Z,5.96
2023-02-14T10:19:42.825Z,6.08
2023-02-14T10:22:23.020Z,5.92
2023-02-14T10:24:56.231Z,5.92
2023-02-14T10:27:40.599Z,6.00
2023-02-14T10:30:12.918Z,6.02
2023-02-14T10:33:12.042Z,6.11
2023-02-14T10:35:42.928Z,6.20
2023-02-14T10:38:17.590Z,5.99
2023-02-14T10:40:59.984Z,5.97
2023-02-14T10:43:50.686Z,6.01
2023-02-14T10:47:02.497Z,6.12
2023-02-14T10:49:35.252Z,6.02
2023-02-14T10:52:08.163Z,6.10
2023-02-14T10:54:41.196Z,6.00
2023-02-14T10:57:34.339Z,5.93
2023-02-14T11:00:05.270Z,5.96
2023-02-14T11:02:37.483Z,6.00
2023-02-14T11:05:05.959Z,6.10
2023-02-14T11:07:32.830Z,6.11
2023-02-14T11:10:00.402Z,6.10
2023-02-14T11:12:41.308Z,5.98
2023-02-14T11:15:10.560Z,6.01
2023-02-14T11:17:37.976Z,6.00
2023-02-14T11:20:26.545Z,5.92
2023-02-14T11:22:53.401Z,6.04
2023-02-14T11:25:26.524Z,6.20
2023-02-14T11:28:01.411Z,6.25
2023-02-14T11:30:34.246Z,6.35
2023-02-14T11:33:01.621Z,6.31
2023-02-14T11:35:35.579Z,6.41
2023-02-14T11:38:05.458Z,6.44
2023-02-14T11:40:35.202Z,6.38
2023-02-14T11:43:14.181Z,6.39
2023-02-14T11:45:43.916Z,6.57
2023-02-14T11:48:19.960Z,6.54
2023-02-14T11:51:07.093Z,6.42
2023-02-14T11:53:55.940Z,6.56
2023-02-14T11:56:23.938Z,6.64
2023-02-14T11:58:57.984Z,6.65
2023-02-14T12:01:27.943Z,6.67
2023-02-14T12:03:57.030Z,6.52
2023-02-14T12:06:33.258Z,6.75
2023-02-14T12:09:22.044Z,6.59
2023-02-14T12:12:01.009Z,6.65
2023-02-14T12:14:35.823Z,6.44
2023-02-14T12:17:11.711Z,6.73
2023-02-14T12:19:53.575Z,6.93
2023-02-14T12:22:27.408Z,6.99
2023-02-14T12:25:22.795Z,6.88
2023-02-14T12:27:57.008Z,6.84
2023-02-14T12:30:25.809Z,6.81
2023-02-14T12:32:56.674Z,6.84
2023-02-14T12:35:54.467Z,6.69
2023-02-14T12:38:33.274Z,6.81
2023-02-14T12:41:18.952Z,6.97
2023-02-14T12:44:12.010Z,7.00
2023-02-14T12:47:11.177Z,7.10
2023-02-14T12:49:47.626Z,6.96
2023-02-14T12:52:38.843Z,6.84
2023-02-14T12:55:20.540Z,7.08
2023-02-14T12:58:03.009Z,6.91
2023-02-14T13:00:40.289Z,6.96
2023-02-14T13:03:37.957Z,7.09
2023-02-14T13:06:32.266Z,7.02
2023-02-14T13:09:05.123Z,7.05
2023-02-14T13:11:41.035Z,7.00
2023-02-14T13:14:33.783Z,7.00
2023-02-14T13:17:11.674Z,7.10
2023-02-14T13:19:55.482Z,7.39
2023-02-14T13:22:25.293Z,7.08
2023-02-14T13:24:57.130Z,7.02
2023-02-14T13:27:26.129Z,7.20
2023-02-14T13:30:21.658Z,7.20
2023-02-14T13:32:50.682Z,7.18
2023-02-14T13:35:19.932Z,7.29
2023-02-14T13:37:52.200Z,7.28
2023-02-14T13:40:23.904Z,7.07
2023-02-14T13:42:53.764Z,7.12
2023-02-14T13:45:30.294Z,7.13
2023-02-14T13:48:20.570Z,7.13
2023-02-14T13:51:04.736Z,7.18
2023-02-14T13:53:37.545Z,7.37
2023-02-14T13:56:05.748Z,7.30
2023-02-14T13:58:33.254Z,7.30
2023-02-14T14:01:34.954Z,7.65
2023-02-14T14:04:05.763Z,7.83
2023-02-14T14:07:04.924Z,7.49
2023-02-14T14:09:45.372Z,7.24
2023-02-14T14:12:27.625Z,7.27
2023-02-14T14:15:06.536Z,7.35
2023-02-14T14:17:37.591Z,7.30
2023-02-14T14:20:27.571Z,7.28
2023-02-14T14:22:56.683Z,7.29
2023-02-14T14:25:34.650Z,7.34
2023-02-14T14:28:01.711Z,7.28
2023-02-14T14:30:33.426Z,7.18
2023-02-14T14:33:19.015Z,6.94
2023-02-14T14:35:54.192Z,7.01
2023-02-14T14:38:21.017Z,7.14
2023-02-14T14:40:48.929Z,6.90
2023-02-14T14:43:39.547Z,6.81
2023-02-14T14:46:10.942Z,6.94
2023-02-14T14:48:47.000Z,6.94
2023-02-14T14:51:30.100Z,6.86
2023-02-14T14:54:13.869Z,7.09
2023-02-14T14:57:02.780Z,7.05
2023-02-14T14:59:35.130Z,7.18
2023-02-14T15:02:24.282Z,7.28
2023-02-14T15:04:51.060Z,7.19
2023-02-14T15:07:27.657Z,7.22
2023-02-14T15:09:54.422Z,7.22
2023-02-14T15:12:42.264Z,7.28
2023-02-14T15:15:15.249Z,7.24
2023-02-14T15:17:43.064Z,7.29
2023-02-14T15:20:15.158Z,7.29
2023-02-14T15:22:45.618Z,7.23
2023-02-14T15:25:26.666Z,7.25
2023-02-14T15:27:53.817Z,6.91
2023-02-14T15:30:20.756Z,6.75
2023-02-14T15:32:50.483Z,6.74
2023-02-14T15:35:22.822Z,6.80
2023-02-14T15:37:50.705Z,6.73
2023-02-14T15:40:22.657Z,6.70
2023-02-14T15:42:53.158Z,6.55
2023-02-14T15:45:26.515Z,6.65
2023-02-14T15:48:01.008Z,6.66
2023-02-14T15:50:47.866Z,6.64
2023-02-14T15:53:29.556Z,6.51
2023-02-14T15:56:04.755Z,6.43
2023-02-14T15:58:32.924Z,6.55
2023-02-14T16:01:00.192Z,6.42
2023-02-14T16:03:31.093Z,6.42
2023-02-14T16:05:58.794Z,6.27
2023-02-14T16:08:37.682Z,6.26
2023-02-14T16:11:26.890Z,6.12
2023-02-14T16:13:54.221Z,6.09
2023-02-14T16:16:21.695Z,5.98
2023-02-14T16:18:55.974Z,5.94
2023-02-14T16:21:28.508Z,5.90
2023-02-14T16:24:21.705Z,5.77
2023-02-14T16:26:48.749Z,5.74
2023-02-14T16:29:17.410Z,5.74
2023-02-14T16:32:14.660Z,5.68
2023-02-14T16:34:42.930Z,5.68
2023-02-14T16:37:19.857Z,5.56
2023-02-14T16:39:47.328Z,5.50
2023-02-14T16:42:18.662Z,5.43
2023-02-14T16:44:46.375Z,5.31
2023-02-14T16:47:14.743Z,5.23
2023-02-14T16:49:42.189Z,5.15
2023-02-14T16:52:18.333Z,5.19
2023-02-14T16:54:45.429Z,4.95
2023-02-14T16:57:27.754Z,4.97
2023-02-14T16:59:56.400Z,4.97
2023-02-14T17:02:28.508Z,4.96
2023-02-14T17:04:55.639Z,4.91
2023-02-14T17:07:23.064Z,4.79
2023-02-14T17:09:56.001Z,4.72
2023-02-14T17:12:29.179Z,4.63
2023-02-14T17:14:59.287Z,4.56
2023-02-14T17:17:26.649Z,4.56
2023-02-14T17:19:53.531Z,4.48
2023-02-14T17:22:21.078Z,4.49
2023-02-14T17:24:47.959Z,4.38
2023-02-14T17:27:15.219Z,4.34
2023-02-14T17:29:43.736Z,4.26
2023-02-14T17:32:13.010Z,4.17
2023-02-14T17:34:40.976Z,4.27
2023-02-14T17:37:08.073Z,4.18
2023-02-14T17:39:35.019Z,4.23
2023-02-14T17:42:01.649Z,4.24
2023-02-14T17:44:32.408Z,4.18
2023-02-14T17:46:59.343Z,4.08
2023-02-14T17:49:26.796Z,3.98
2023-02-14T17:51:53.677Z,3.86
2023-02-14T17:54:20.458Z,3.71
2023-02-14T17:56:47.123Z,3.72
2023-02-14T17:59:14.227Z,3.69
2023-02-14T18:01:40.929Z,3.62
2023-02-14T18:04:07.759Z,3.75
2023-02-14T18:06:34.745Z,3.63
2023-02-14T18:09:05.879Z,3.72
2023-02-14T18:11:32.598Z,3.62
2023-02-14T18:13:59.860Z,3.57
2023-02-14T18:16:26.565Z,3.68
2023-02-14T18:18:54.937Z,3.59
2023-02-14T18:21:24.329Z,3.50
2023-02-14T18:23:52.031Z,3.57
2023-02-14T18:26:19.531Z,3.52
2023-02-14T18:28:46.859Z,3.48
2023-02-14T18:31:17.166Z,3.28
2023-02-14T18:33:46.709Z,3.11
2023-02-14T18:36:17.157Z,3.09
2023-02-14T18:38:46.021Z,3.11
2023-02-14T18:41:15.534Z,3.18
2023-02-14T18:43:43.029Z,3.23
2023-02-14T18:46:12.563Z,3.14
2023-02-14T18:48:39.797Z,3.25
2023-02-14T18:51:07.492Z,3.25
2023-02-14T18:53:35.302Z,3.29
2023-02-14T18:56:10.706Z,3.15
2023-02-14T18:58:37.785Z,3.05
2023-02-14T19:01:14.274Z,3.16
2023-02-14T19:03:41.505Z,3.14
2023-02-14T19:06:09.159Z,3.03
2023-02-14T19:08:38.956Z,3.02
2023-02-14T19:11:21.974Z,3.14
2023-02-14T19:13:50.997Z,3.05
2023-02-14T19:16:20.841Z,2.90
2023-02-14T19:18:49.662Z,2.89
2023-02-14T19:21:20.196Z,2.96
2023-02-14T19:23:47.217Z,2.97
2023-02-14T19:26:16.858Z,3.00
2023-02-14T19:28:44.813Z,2.95
2023-02-14T19:31:12.196Z,2.95
2023-02-14T19:33:40.890Z,2.99
2023-02-14T19:36:12.701Z,3.05
2023-02-14T19:38:41.095Z,3.00
2023-02-14T19:41:16.740Z,2.90
2023-02-14T19:43:45.850Z,2.97
2023-02-14T19:46:14.470Z,2.85
2023-02-14T19:48:42.371Z,2.90
2023-02-14T19:51:15.659Z,2.90
2023-02-14T19:53:42.525Z,2.93
2023-02-14T19:56:09.576Z,2.79
2023-02-14T19:58:36.633Z,2.75
2023-02-14T20:01:05.869Z,2.79
2023-02-14T20:03:35.217Z,2.72
2023-02-14T20:06:01.972Z,2.79
2023-02-14T20:08:28.745Z,2.70
2023-02-14T20:10:55.588Z,2.67
2023-02-14T20:13:22.394Z,2.67
2023-02-14T20:15:49.292Z,2.74
2023-02-14T20:18:16.034Z,2.69
2023-02-14T20:21:04.718Z,2.71
2023-02-14T20:23:32.257Z,2.59
2023-02-14T20:25:58.956Z,2.62
2023-02-14T20:28:25.723Z,2.65
2023-02-14T20:30:52.437Z,2.69
2023-02-14T20:33:19.225Z,2.67
2023-02-14T20:35:45.912Z,2.56
2023-02-14T20:38:12.661Z,2.36
2023-02-14T20:40:42.287Z,2.37
2023-02-14T20:43:09.127Z,2.40
2023-02-14T20:45:35.863Z,2.44
2023-02-14T20:48:04.237Z,2.37
2023-02-14T20:50:31.481Z,2.36
2023-02-14T20:52:58.331Z,2.42
2023-02-14T20:55:27.116Z,2.41
2023-02-14T20:57:54.544Z,2.49
2023-02-14T21:00:25.505Z,2.35
2023-02-14T21:02:52.352Z,2.28
2023-02-14T21:05:20.831Z,2.32
2023-02-14T21:07:47.712Z,2.29
2023-02-14T21:10:15.371Z,2.37
2023-02-14T21:12:42.219Z,2.28
2023-02-14T21:15:10.291Z,2.26
2023-02-14T21:17:37.895Z,2.21
2023-02-14T21:20:05.851Z,2.26
2023-02-14T21:22:32.930Z,2.22
2023-02-14T21:24:59.604Z,2.24
2023-02-14T21:27:26.810Z,2.24
2023-02-14T21:29:53.597Z,2.28
2023-02-14T21:32:20.399Z,2.27
2023-02-14T21:34:47.596Z,2.21
2023-02-14T21:37:14.669Z,2.21
2023-02-14T21:39:41.684Z,2.14
2023-02-14T21:42:11.402Z,2.11
2023-02-14T21:44:57.243Z,2.10
2023-02-14T21:47:24.165Z,2.08
2023-02-14T21:50:09.472Z,1.99
2023-02-14T21:52:36.679Z,1.97
2023-02-14T21:55:03.615Z,1.93
2023-02-14T21:57:31.299Z,1.91
2023-02-14T21:59:57.942Z,1.91
2023-02-14T22:02:24.661Z,1.91
2023-02-14T22:04:51.341Z,1.91
2023-02-14T22:07:18.032Z,1.85
2023-02-14T22:09:44.716Z,1.82
2023-02-14T22:12:11.941Z,1.81
2023-02-14T22:14:38.612Z,1.83
2023-02-14T22:17:05.267Z,1.84
2023-02-14T22:19:31.956Z,1.84
2023-02-14T22:21:58.861Z,1.88
2023-02-14T22:24:25.541Z,1.85
2023-02-14T22:26:52.260Z,1.88
2023-02-14T22:29:18.903Z,1.88
2023-02-14T22:31:46.018Z,1.97
2023-02-14T22:34:15.083Z,1.91
2023-02-14T22:36:41.903Z,1.82
2023-02-14T22:39:09.411Z,1.66
2023-02-14T22:41:37.750Z,1.60
2023-02-14T22:44:05.410Z,1.62
2023-02-14T22:46:32.381Z,1.67
2023-02-14T22:48:59.068Z,1.71
2023-02-14T22:51:31.050Z,1.57
2023-02-14T22:54:15.574Z,1.58
2023-02-14T22:56:45.489Z,1.66
2023-02-14T22:59:23.228Z,1.61
2023-02-14T23:01:52.047Z,1.61
2023-02-14T23:04:21.795Z,1.65
2023-02-14T23:06:48.926Z,1.60
2023-02-14T23:09:15.892Z,1.66
2023-02-14T23:11:43.863Z,1.63
2023-02-14T23:14:34.476Z,1.52
2023-02-14T23:17:20.451Z,1.52
2023-02-14T23:20:06.256Z,1.52
2023-02-14T23:22:36.474Z,1.55
2023-02-14T23:25:07.078Z,1.54
2023-02-14T23:27:36.951Z,1.50
2023-02-14T23:30:06.288Z,1.51
2023-02-14T23:32:33.080Z,1.53
2023-02-14T23:35:00.247Z,1.49
2023-02-14T23:37:29.573Z,1.51
2023-02-14T23:39:56.237Z,1.49
2023-02-14T23:42:22.945Z,1.48
2023-02-14T23:44:49.644Z,1.42
2023-02-14T23:47:17.307Z,1.47
2023-02-14T23:49:45.769Z,1.42
2023-02-14T23:52:13.474Z,1.42
2023-02-14T23:54:40.723Z,1.43
2023-02-14T23:57:08.452Z,1.41
2023-02-14T23:59:35.300Z,1.38
